Weather History for KAXA - November, 2011

Change the Weather History Date:

Monday, November 14, 2011

  Actual Average Record
Temperature  
Mean Temperature 42 °F -  
Max Temperature 55 °F 43 °F 66 °F (2001)
Min Temperature 30 °F 27 °F 0 °F (1996)
Degree Days  
Heating Degree Days 22    
Moisture  
Dew Point 22 °F    
Average Humidity 51    
Maximum Humidity 86    
Minimum Humidity 18    
Precipitation  
Precipitation 0.00 in - - ()
Sea Level Pressure  
Sea Level Pressure 29.53 in    
Wind  
Wind Speed 10 mph (SW)    
Max Wind Speed 23 mph    
Max Gust Speed 29 mph    
Visibility 10 miles    
Events      
Averages and records for this station are not official NWS values.
T = Trace of Precipitation, MM = Missing Value Source: NWS Daily Summary

Daily Weather History Graph

Daily Weather History Graph

Search for Another Location

Airport or City:

Trip Planner

Search our weather history database for the weather conditions in past years. The results will help you decide how hot, cold, wet, or windy it might be!

Date:

Astronomy

Nov. 14, 2011 Rise Set
Actual Time 7:08 AM CST 4:54 PM CST
Civil Twilight 6:37 AM CST 5:24 PM CST
Nautical Twilight 6:03 AM CST 5:59 PM CST
Astronomical Twilight 5:29 AM CST 6:32 PM CST
Moon 8:00 PM CST (11/14) 10:29 AM CST (11/14)
Length of Visible Light 10h 47m
Length of Day
9h 46m
Waning Gibbous, 86% of the Moon is Illuminated
Nov 14
Waning Gibbous
Nov 18
Last Quarter
Nov 25
New
Dec 2
First Quarter
Dec 10
Full

Hourly Weather History & Observations

Time (CST) Temp. Windchill Dew Point Humidity Pressure Visibility Wind Dir Wind Speed Gust Speed Precip Events Conditions
12:15 AM 33.8 °F 27.0 °F 26.6 °F 75% 29.53 in 10.0 mi SSW 8.1 mph - N/A   Clear
12:35 AM 33.8 °F 27.0 °F 26.6 °F 75% 29.53 in 10.0 mi South 8.1 mph - N/A   Clear
12:55 AM 32.0 °F 24.8 °F 24.8 °F 75% 29.52 in 10.0 mi SSW 8.1 mph - N/A   Clear
1:15 AM 32.0 °F 24.8 °F 24.8 °F 75% 29.52 in 10.0 mi South 8.1 mph - N/A   Clear
1:35 AM 30.2 °F 22.6 °F 24.8 °F 80% 29.52 in 10.0 mi South 8.1 mph - N/A   Clear
1:55 AM 32.0 °F 24.2 °F 24.8 °F 75% 29.52 in 10.0 mi South 9.2 mph - N/A   Clear
2:15 AM 30.2 °F 22.6 °F 24.8 °F 80% 29.51 in 10.0 mi South 8.1 mph - N/A   Clear
2:35 AM 30.2 °F 22.6 °F 24.8 °F 80% 29.51 in 10.0 mi South 8.1 mph - N/A   Clear
2:55 AM 30.2 °F 21.3 °F 24.8 °F 80% 29.49 in 10.0 mi South 10.4 mph - N/A   Clear
3:15 AM 30.2 °F 22.6 °F 26.6 °F 86% 29.48 in 10.0 mi SSE 8.1 mph - N/A   Clear
3:35 AM 33.8 °F 27.0 °F 26.6 °F 75% 29.48 in 10.0 mi South 8.1 mph - N/A   Clear
3:55 AM 30.2 °F 21.9 °F 26.6 °F 86% 29.47 in 10.0 mi SSE 9.2 mph - N/A   Clear
4:15 AM 33.8 °F 27.7 °F 28.4 °F 81% 29.46 in 10.0 mi SSE 6.9 mph - N/A   Clear
4:35 AM 35.6 °F 30.7 °F 28.4 °F 75% 29.45 in 10.0 mi SSE 5.8 mph - N/A   Clear
4:55 AM 33.8 °F 27.0 °F 26.6 °F 75% 29.47 in 10.0 mi South 8.1 mph - N/A   Scattered Clouds
5:15 AM 33.8 °F 26.4 °F 28.4 °F 81% 29.46 in 10.0 mi South 9.2 mph - N/A   Scattered Clouds
5:35 AM 35.6 °F 28.6 °F 28.4 °F 75% 29.46 in 10.0 mi South 9.2 mph - N/A   Mostly Cloudy
6:15 AM 35.6 °F 27.1 °F 30.2 °F 81% 29.47 in 10.0 mi South 12.7 mph - N/A   Mostly Cloudy
6:35 AM 37.4 °F 30.8 °F 30.2 °F 75% 29.46 in 10.0 mi South 9.2 mph - N/A   Overcast
6:55 AM 39.2 °F 32.5 °F 30.2 °F 70% 29.46 in 10.0 mi South 10.4 mph - N/A   Overcast
7:15 AM 39.2 °F 33.0 °F 30.2 °F 70% 29.46 in 10.0 mi South 9.2 mph - N/A   Overcast
7:35 AM 39.2 °F 32.5 °F 30.2 °F 70% 29.47 in 10.0 mi South 10.4 mph - N/A   Mostly Cloudy
7:55 AM 39.2 °F 33.0 °F 30.2 °F 70% 29.48 in 10.0 mi South 9.2 mph - N/A   Scattered Clouds
8:35 AM 42.8 °F 37.5 °F 32.0 °F 66% 29.48 in 10.0 mi SSW 9.2 mph - N/A   Scattered Clouds
8:55 AM 44.6 °F 38.8 °F 32.0 °F 61% 29.49 in 10.0 mi WSW 11.5 mph - N/A   Clear
9:15 AM 46.4 °F 39.5 °F 30.2 °F 53% 29.50 in 10.0 mi WSW 17.3 mph - N/A   Clear
9:35 AM 46.4 °F 39.0 °F 30.2 °F 53% 29.51 in 10.0 mi West 19.6 mph - N/A   Clear
9:55 AM 46.4 °F 40.7 °F 30.2 °F 53% 29.50 in 10.0 mi West 12.7 mph - N/A   Clear
10:15 AM 48.2 °F - 28.4 °F 46% 29.51 in 10.0 mi West 12.7 mph - N/A   Clear
10:35 AM 48.2 °F - 26.6 °F 43% 29.51 in 10.0 mi West 10.4 mph - N/A   Clear
10:55 AM 51.8 °F - 26.6 °F 38% 29.52 in 10.0 mi West 12.7 mph - N/A   Clear
11:15 AM 51.8 °F - 26.6 °F 38% 29.51 in 10.0 mi West 12.7 mph - N/A   Clear
11:35 AM 51.8 °F - 26.6 °F 38% 29.52 in 10.0 mi West 13.8 mph - N/A   Clear
11:55 AM 53.6 °F - 26.6 °F 35% 29.52 in 10.0 mi West 13.8 mph - N/A   Clear
12:15 PM 55.4 °F - 23.0 °F 29% 29.53 in 10.0 mi West 18.4 mph 21.9 mph N/A   Clear
12:35 PM 55.4 °F - 19.4 °F 25% 29.54 in 10.0 mi West 21.9 mph 25.3 mph N/A   Clear
12:55 PM 55.4 °F - 17.6 °F 23% 29.54 in 10.0 mi West 18.4 mph - N/A   Clear
1:15 PM 55.4 °F - 19.4 °F 25% 29.55 in 10.0 mi West 23.0 mph 26.5 mph N/A   Clear
1:35 PM 55.4 °F - 15.8 °F 21% 29.55 in 10.0 mi West 21.9 mph 28.8 mph N/A   Clear
1:55 PM 53.6 °F - 15.8 °F 22% 29.55 in 10.0 mi West 21.9 mph 27.6 mph N/A   Clear
2:15 PM 53.6 °F - 12.2 °F 19% 29.55 in 10.0 mi West 23.0 mph - N/A   Clear
2:35 PM 53.6 °F - 10.4 °F 18% 29.55 in 10.0 mi WNW 18.4 mph 24.2 mph N/A   Clear
2:55 PM 53.6 °F - 10.4 °F 18% 29.55 in 10.0 mi West 21.9 mph 25.3 mph N/A   Clear
3:15 PM 51.8 °F - 12.2 °F 21% 29.55 in 10.0 mi West 18.4 mph - N/A   Clear
3:35 PM 51.8 °F - 12.2 °F 21% 29.56 in 10.0 mi WNW 15.0 mph 19.6 mph N/A   Clear
3:55 PM 51.8 °F - 12.2 °F 21% 29.57 in 10.0 mi West 15.0 mph - N/A   Clear
4:15 PM 51.8 °F - 12.2 °F 21% 29.57 in 10.0 mi West 13.8 mph - N/A   Clear
4:35 PM 48.2 °F - 15.8 °F 27% 29.59 in 10.0 mi WSW 8.1 mph - N/A   Clear
4:55 PM 46.4 °F 42.4 °F 15.8 °F 29% 29.60 in 10.0 mi WSW 8.1 mph - N/A   Clear
5:15 PM 42.8 °F 39.3 °F 15.8 °F 34% 29.60 in 10.0 mi WSW 5.8 mph - N/A   Clear
5:35 PM 41.0 °F 36.4 °F 15.8 °F 36% 29.61 in 10.0 mi WSW 6.9 mph - N/A   Clear
5:55 PM 41.0 °F 37.1 °F 14.0 °F 33% 29.62 in 10.0 mi SW 5.8 mph - N/A   Clear
6:15 PM 39.2 °F 35.0 °F 15.8 °F 39% 29.62 in 10.0 mi SSW 5.8 mph - N/A   Clear
6:35 PM 37.4 °F 32.1 °F 15.8 °F 41% 29.63 in 10.0 mi South 6.9 mph - N/A   Clear
6:55 PM 35.6 °F 29.9 °F 14.0 °F 41% 29.63 in 10.0 mi SSW 6.9 mph - N/A   Clear
7:15 PM 35.6 °F 29.2 °F 14.0 °F 41% 29.63 in 10.0 mi South 8.1 mph - N/A   Clear
7:35 PM 35.6 °F 28.6 °F 15.8 °F 44% 29.64 in 10.0 mi South 9.2 mph - N/A   Clear
7:55 PM 35.6 °F 29.9 °F 15.8 °F 44% 29.64 in 10.0 mi South 6.9 mph - N/A   Clear
8:15 PM 35.6 °F 28.6 °F 14.0 °F 41% 29.64 in 10.0 mi South 9.2 mph - N/A   Clear
8:35 PM 35.6 °F 28.6 °F 15.8 °F 44% 29.64 in 10.0 mi South 9.2 mph - N/A   Clear
8:55 PM 33.8 °F 27.0 °F 15.8 °F 48% 29.63 in 10.0 mi South 8.1 mph - N/A   Clear
9:15 PM 33.8 °F 29.6 °F 15.8 °F 48% 29.62 in 10.0 mi SSE 4.6 mph - N/A   Clear
9:35 PM 37.4 °F 33.8 °F 15.8 °F 41% 29.62 in 10.0 mi SSE 4.6 mph - N/A   Clear
9:55 PM 35.6 °F 31.7 °F 15.8 °F 44% 29.62 in 10.0 mi SSE 4.6 mph - N/A   Clear
10:15 PM 37.4 °F 32.1 °F 15.8 °F 41% 29.62 in 10.0 mi South 6.9 mph - N/A   Clear
10:35 PM 37.4 °F 29.8 °F 17.6 °F 45% 29.62 in 10.0 mi South 11.5 mph - N/A   Clear
10:55 PM 37.4 °F 30.3 °F 17.6 °F 45% 29.62 in 10.0 mi South 10.4 mph - N/A   Clear
11:15 PM 39.2 °F 32.5 °F 17.6 °F 42% 29.61 in 10.0 mi South 10.4 mph - N/A   Scattered Clouds
11:35 PM 37.4 °F 30.3 °F 17.6 °F 45% 29.62 in 10.0 mi South 10.4 mph - N/A   Mostly Cloudy
11:55 PM 37.4 °F 30.8 °F 17.6 °F 45% 29.62 in 10.0 mi South 9.2 mph - N/A   Overcast